ADDS METAR Data INFO
IDs: Format: Raw Decoded Include TAF

Data at: 1321 UTC 19 Jul 2018

KGOK 191253Z AUTO 15005KT 8SM CLR 25/23 A2988 RMK AO2 SLP105 T02500228
KGOK 191153Z AUTO 14006KT 7SM CLR 24/23 A2987 RMK AO2 SLP103 T02390228 10256 20239 55002
KGOK 191053Z AUTO 14007KT 10SM CLR 24/23 A2987 RMK AO2 SLP101 T02440228
KGOK 190953Z AUTO 14007KT 9SM CLR 24/23 A2986 RMK AO2 SLP100 T02440228
KGOK 190853Z AUTO 11004KT 9SM CLR 24/23 A2988 RMK AO2 SLP107 T02390228 56007
KGOK 190753Z AUTO 08005KT 10SM CLR 24/23 A2988 RMK AO2 SLP107 T02440228
KGOK 190653Z AUTO 13006KT 10SM CLR 26/23 A2989 RMK AO2 SLP109 T02560228
KGOK 190553Z AUTO 12007KT 10SM CLR 26/23 A2990 RMK AO2 SLP114 T02560228 10317 20256 403220233 51008
KGOK 190453Z AUTO 13004KT 10SM CLR 26/23 A2990 RMK AO2 SLP113 T02560228
KGOK 190353Z AUTO 11006KT 10SM CLR 27/23 A2989 RMK AO2 SLP111 T02670228
KGOK 190253Z AUTO 10006KT 10SM CLR 27/23 A2988 RMK AO2 SLP107 T02670228 53001
KGOK 190153Z AUTO 11003KT 10SM CLR 27/22 A2988 RMK AO2 SLP106 T02720222
KGOK 190053Z AUTO 11006KT 10SM CLR 30/22 A2988 RMK AO2 SLP105 T03000222
KGOK 182353Z AUTO 11005KT 10SM CLR 32/21 A2988 RMK AO2 SLP104 60000 T03170211 10322 20267 56022
KGOK 182253Z AUTO 14007KT 10SM CLR 32/20 A2989 RMK AO2 SLP110 T03220200
KGOK 182153Z AUTO 17009KT 10SM CLR 32/21 A2991 RMK AO2 SLP115 T03220206
KGOK 182053Z AUTO 14005KT 10SM CLR 30/22 A2994 RMK AO2 SLP128 60000 T03000222 58011
KGOK 181953Z AUTO 14004KT 10SM CLR 29/23 A2996 RMK AO2 SLP134 T02890228
KGOK 181853Z AUTO 11005KT 10SM FEW075 SCT100 BKN120 27/23 A2997 RMK AO2 RAB06E16 SLP137 P0000 T02720233
KGOK 181753Z AUTO 16005KT 10SM CLR 27/23 A2998 RMK AO2 SLP140 60000 T02670228 10267 20239 51004
KGOK 181653Z AUTO 09004KT 10SM SCT012 BKN120 26/23 A2997 RMK AO2 SLP139 T02610228
KGOK 181649Z AUTO 13004KT 10SM SCT012 SCT120 26/23 A2997 RMK AO2
KGOK 181603Z AUTO 18003KT 10SM BKN010 BKN120 26/23 A2997 RMK AO2 T02560228
KGOK 181553Z AUTO 13005KT 10SM SCT010 BKN120 26/23 A2996 RMK AO2 SLP135 T02560228
KGOK 181453Z AUTO 15008KT 10SM FEW110 24/23 A2993 RMK AO2 RAE02B22E33 SLP123 P0000 60000 T02440228 56019
KGOK 181353Z AUTO 11011KT 10SM -RA FEW120 24/22 A2993 RMK AO2 RAB39 PRESFR SLP125 P0000 T02390222
KGOK 181253Z AUTO 09005KT 10SM SCT120 24/22 A2997 RMK AO2 RAB03E12 SLP136 P0000 T02390222
KGOK 181153Z AUTO 00000KT 10SM SCT110 24/22 A2999 RMK AO2 RAB1058E22 SLP142 P0000 60000 70011 T02390222 10278 20233 56001
KGOK 181053Z AUTO 00000KT 10SM SCT110 24/22 A2999 RMK AO2 SLP143 T02390222
KGOK 180953Z AUTO 14005KT 10SM BKN110 24/22 A2997 RMK AO2 SLP135 T02440222
KGOK 180853Z AUTO 05006KT 10SM SCT110 24/22 A2999 RMK AO2 SLP142 60000 T02440217 50016
KGOK 180753Z AUTO 03007KT 10SM FEW110 24/22 A3000 RMK AO2 RAE17 SLP147 P0000 T02440222
KGOK 180653Z AUTO 01009G15KT 10SM -RA FEW032 SCT090 OVC110 27/23 A3002 RMK AO2 RAB50 SLP151 P0000 T02670228
KGOK 180553Z AUTO 12009KT 10SM FEW120 28/22 A2994 RMK AO2 SLP126 T02780222 10328 20278 403500244 58001
KGOK 180453Z AUTO 11009KT 10SM BKN110 28/23 A2995 RMK AO2 LTG DSNT E SLP130 T02780228
KGOK 180353Z AUTO 09005KT 10SM CLR 28/22 A2996 RMK AO2 SLP132 T02830222
KGOK 180253Z AUTO 11009G15KT 10SM BKN110 29/22 A2994 RMK AO2 SLP127 T02940222 53006
KGOK 180153Z AUTO 11007KT 10SM CLR 29/23 A2992 RMK AO2 SLP122 T02940233